createdAt,value
2017-09-05T00:01:23.453Z,1.90
2017-09-05T00:03:51.591Z,2.03
2017-09-05T00:06:19.709Z,2.37
2017-09-05T00:08:47.911Z,1.90
2017-09-05T00:11:16.052Z,2.30
2017-09-05T00:13:44.971Z,2.13
2017-09-05T00:16:13.108Z,2.20
2017-09-05T00:18:41.374Z,2.30
2017-09-05T00:21:09.541Z,1.80
2017-09-05T00:23:37.727Z,1.87
2017-09-05T00:26:05.861Z,2.10
2017-09-05T00:28:34.020Z,2.27
2017-09-05T00:31:02.216Z,2.13
2017-09-05T00:33:30.713Z,2.60
2017-09-05T00:35:58.897Z,1.90
2017-09-05T00:38:27.016Z,2.30
2017-09-05T00:40:55.167Z,2.30
2017-09-05T00:43:23.372Z,1.70
2017-09-05T00:45:51.491Z,2.00
2017-09-05T00:48:19.619Z,1.77
2017-09-05T00:50:47.747Z,1.93
2017-09-05T00:53:15.880Z,2.20
2017-09-05T00:59:47.748Z,1.80
2017-09-05T01:02:15.891Z,2.30
2017-09-05T01:04:44.032Z,2.30
2017-09-05T01:07:12.160Z,1.97
2017-09-05T01:09:40.332Z,2.37
2017-09-05T01:12:08.857Z,1.77
2017-09-05T01:14:36.984Z,2.07
2017-09-05T01:17:05.120Z,2.07
2017-09-05T01:19:33.241Z,2.70
2017-09-05T01:22:01.392Z,1.83
2017-09-05T01:24:29.531Z,2.00
2017-09-05T01:26:57.712Z,1.90
2017-09-05T01:29:25.852Z,1.50
2017-09-05T01:31:54.000Z,2.13
2017-09-05T01:34:22.143Z,2.23
2017-09-05T01:36:50.273Z,1.50
2017-09-05T01:39:18.400Z,1.80
2017-09-05T01:41:47.281Z,2.30
2017-09-05T01:44:15.399Z,2.10
2017-09-05T01:46:43.523Z,2.40
2017-09-05T01:49:11.671Z,2.00
2017-09-05T01:51:39.821Z,1.67
2017-09-05T01:54:07.987Z,1.77
2017-09-05T01:56:40.944Z,1.93
2017-09-05T01:59:09.360Z,1.80
2017-09-05T02:01:37.488Z,2.20
2017-09-05T02:04:05.685Z,1.77
2017-09-05T02:06:33.811Z,2.17
2017-09-05T02:09:01.944Z,2.17
2017-09-05T02:11:30.097Z,1.67
2017-09-05T02:13:58.236Z,2.00
2017-09-05T02:16:26.378Z,1.63
2017-09-05T02:18:54.520Z,1.60
2017-09-05T02:21:22.680Z,2.33
2017-09-05T02:23:50.817Z,1.60
2017-09-05T02:26:19.016Z,1.77
2017-09-05T02:28:47.154Z,1.73
2017-09-05T02:31:15.313Z,2.00
2017-09-05T02:33:43.450Z,2.00
2017-09-05T02:36:11.576Z,1.87
2017-09-05T02:38:39.720Z,1.80
2017-09-05T02:41:07.842Z,1.87
2017-09-05T02:43:36.048Z,1.67
2017-09-05T02:46:04.195Z,1.60
2017-09-05T02:48:32.344Z,1.73
2017-09-05T02:51:00.468Z,2.07
2017-09-05T02:53:28.625Z,1.93
2017-09-05T02:55:56.741Z,1.83
2017-09-05T02:58:24.868Z,2.00
2017-09-05T03:00:52.993Z,1.87
2017-09-05T03:03:21.123Z,2.03
2017-09-05T03:08:30.316Z,1.90
2017-09-05T03:10:58.451Z,1.80
2017-09-05T03:13:26.620Z,1.70
2017-09-05T03:15:55.525Z,1.80
2017-09-05T03:18:24.416Z,1.60
2017-09-05T03:20:53.305Z,1.63
2017-09-05T03:23:21.451Z,1.63
2017-09-05T03:25:49.577Z,1.40
2017-09-05T03:28:17.723Z,1.50
2017-09-05T03:30:45.884Z,1.70
2017-09-05T03:33:14.024Z,1.90
2017-09-05T03:35:42.148Z,1.80
2017-09-05T03:38:10.299Z,1.67
2017-09-05T03:40:38.440Z,1.77
2017-09-05T03:43:06.595Z,2.03
2017-09-05T03:45:34.760Z,1.73
2017-09-05T03:48:03.020Z,2.07
2017-09-05T03:50:31.169Z,1.97
2017-09-05T03:52:59.297Z,1.63
2017-09-05T03:55:27.449Z,2.00
2017-09-05T03:57:55.579Z,1.80
2017-09-05T04:00:23.730Z,1.73
2017-09-05T04:02:51.892Z,1.97
2017-09-05T04:05:20.028Z,1.97
2017-09-05T04:07:48.176Z,1.83
2017-09-05T04:10:16.311Z,1.93
2017-09-05T04:12:44.440Z,1.90
2017-09-05T04:15:12.616Z,1.63
2017-09-05T04:17:40.743Z,1.60
2017-09-05T04:20:08.884Z,2.17
2017-09-05T04:22:37.061Z,1.20
2017-09-05T04:25:06.030Z,1.30
2017-09-05T04:27:34.252Z,2.17
2017-09-05T04:30:02.388Z,1.30
2017-09-05T04:32:30.540Z,1.80
2017-09-05T04:34:58.668Z,1.97
2017-09-05T04:37:26.853Z,1.60
2017-09-05T04:39:54.983Z,1.57
2017-09-05T04:42:23.119Z,1.80
2017-09-05T04:44:51.269Z,1.70
2017-09-05T04:47:19.533Z,1.37
2017-09-05T04:49:47.690Z,1.87
2017-09-05T04:52:15.841Z,1.40
2017-09-05T04:54:43.988Z,1.47
2017-09-05T04:57:12.268Z,1.77
2017-09-05T04:59:40.397Z,1.77
2017-09-05T05:02:08.536Z,1.60
2017-09-05T05:04:36.724Z,1.37
2017-09-05T05:07:04.972Z,1.73
2017-09-05T05:09:33.628Z,1.20
2017-09-05T05:12:01.771Z,1.20
2017-09-05T05:14:30.433Z,1.83
2017-09-05T05:16:58.625Z,1.60
2017-09-05T05:19:26.792Z,1.50
2017-09-05T05:21:54.931Z,1.50
2017-09-05T05:24:23.059Z,2.10
2017-09-05T05:26:51.220Z,2.27
2017-09-05T05:29:19.418Z,1.60
2017-09-05T05:31:47.554Z,1.63
2017-09-05T05:34:15.705Z,1.73
2017-09-05T05:36:43.840Z,1.60
2017-09-05T05:39:11.977Z,1.80
2017-09-05T05:41:40.136Z,2.37
2017-09-05T05:44:08.277Z,2.20
2017-09-05T05:46:36.428Z,1.73
2017-09-05T05:49:04.576Z,1.50
2017-09-05T05:51:32.785Z,1.40
2017-09-05T05:54:00.928Z,1.73
2017-09-05T05:56:29.077Z,1.53
2017-09-05T05:58:57.232Z,2.00
2017-09-05T06:01:26.017Z,1.63
2017-09-05T06:03:54.157Z,1.80
2017-09-05T06:06:22.637Z,1.70
2017-09-05T06:08:50.792Z,1.90
2017-09-05T06:11:18.942Z,1.70
2017-09-05T06:13:47.174Z,1.60
2017-09-05T06:16:15.356Z,2.03
2017-09-05T06:18:43.536Z,1.60
2017-09-05T06:21:11.720Z,1.53
2017-09-05T06:23:39.849Z,1.90
2017-09-05T06:26:08.028Z,1.80
2017-09-05T06:31:15.556Z,1.73
2017-09-05T06:33:43.704Z,1.40
2017-09-05T06:36:11.874Z,1.77
2017-09-05T06:38:40.023Z,1.40
2017-09-05T06:43:47.249Z,1.70
2017-09-05T06:46:15.652Z,1.50
2017-09-05T06:48:43.874Z,1.40
2017-09-05T06:51:12.045Z,1.50
2017-09-05T06:56:19.504Z,1.90
2017-09-05T06:58:47.632Z,1.67
2017-09-05T07:01:15.799Z,1.90
2017-09-05T07:03:43.944Z,1.83
2017-09-05T07:06:12.104Z,2.20
2017-09-05T07:08:40.289Z,1.97
2017-09-05T07:11:08.568Z,1.97
2017-09-05T07:13:36.754Z,1.60
2017-09-05T07:16:04.964Z,2.00
2017-09-05T07:18:33.157Z,1.87
2017-09-05T07:21:01.276Z,1.70
2017-09-05T07:23:29.620Z,2.07
2017-09-05T08:06:50.710Z,1.50
2017-09-05T08:09:18.944Z,2.07
2017-09-05T08:11:47.188Z,1.60
2017-09-05T08:14:15.368Z,1.80
2017-09-05T08:16:43.513Z,2.00
2017-09-05T08:19:11.656Z,1.77
2017-09-05T08:21:39.858Z,2.33
2017-09-05T08:24:08.032Z,1.83
2017-09-05T08:26:36.166Z,1.67
2017-09-05T08:29:04.363Z,2.10
2017-09-05T08:31:32.514Z,1.73
2017-09-05T08:34:00.694Z,2.17
2017-09-05T08:36:28.913Z,2.30
2017-09-05T08:38:57.114Z,2.17
2017-09-05T08:41:25.292Z,1.70
2017-09-05T08:43:53.439Z,2.00
2017-09-05T08:46:21.672Z,2.10
2017-09-05T08:48:49.805Z,1.87
2017-09-05T08:51:17.960Z,2.10
2017-09-05T08:53:46.116Z,2.30
2017-09-05T08:58:53.224Z,2.00
2017-09-05T09:01:21.812Z,2.10
2017-09-05T09:03:49.985Z,1.87
2017-09-05T09:06:18.125Z,1.97
2017-09-05T09:08:46.956Z,1.63
2017-09-05T09:11:15.160Z,2.20
2017-09-05T09:13:43.324Z,1.80
2017-09-05T09:16:11.517Z,1.60
2017-09-05T09:18:40.151Z,3.00
2017-09-05T09:21:08.335Z,1.60
2017-09-05T09:23:36.473Z,2.27
2017-09-05T09:26:04.719Z,1.70
2017-09-05T09:28:32.884Z,1.63
2017-09-05T09:31:01.049Z,2.00
2017-09-05T09:33:29.208Z,2.00
2017-09-05T09:35:57.365Z,2.10
2017-09-05T09:38:25.560Z,2.20
2017-09-05T09:40:53.717Z,2.07
2017-09-05T09:43:21.906Z,2.20
2017-09-05T09:45:50.071Z,2.47
2017-09-05T09:48:18.264Z,2.83
2017-09-05T09:50:46.584Z,2.03
2017-09-05T09:53:14.867Z,2.60
2017-09-05T09:55:43.041Z,2.00
2017-09-05T09:58:11.225Z,2.63
2017-09-05T10:00:39.417Z,2.30
2017-09-05T10:03:08.512Z,2.57
2017-09-05T10:05:36.648Z,2.40
2017-09-05T10:08:04.854Z,2.43
2017-09-05T10:10:32.989Z,2.70
2017-09-05T10:13:01.169Z,1.87
2017-09-05T10:15:29.484Z,2.10
2017-09-05T10:17:57.744Z,1.70
2017-09-05T10:20:25.896Z,2.03
2017-09-05T10:22:54.043Z,2.30
2017-09-05T10:25:22.181Z,2.30
2017-09-05T10:27:50.388Z,2.80
2017-09-05T10:30:18.561Z,2.73
2017-09-05T10:32:46.712Z,2.40
2017-09-05T10:35:15.396Z,1.93
2017-09-05T10:37:43.612Z,2.13
2017-09-05T10:40:11.769Z,2.23
2017-09-05T10:42:40.017Z,3.10
2017-09-05T10:45:08.128Z,2.47
2017-09-05T10:47:36.268Z,3.03
2017-09-05T10:50:04.449Z,2.30
2017-09-05T10:52:32.648Z,2.47
2017-09-05T10:55:00.781Z,1.80
2017-09-05T10:57:28.944Z,2.50
2017-09-05T10:59:57.124Z,2.30
2017-09-05T11:02:25.307Z,2.27
2017-09-05T11:04:53.468Z,2.40
2017-09-05T11:07:21.627Z,2.30
2017-09-05T11:09:50.548Z,2.20
2017-09-05T11:12:18.712Z,2.20
2017-09-05T11:14:46.945Z,2.33
2017-09-05T11:17:15.093Z,2.60
2017-09-05T11:19:48.484Z,3.07
2017-09-05T11:22:16.624Z,2.17
2017-09-05T11:24:44.792Z,2.57
2017-09-05T11:27:12.953Z,2.20
2017-09-05T11:29:41.933Z,2.33
2017-09-05T11:32:10.121Z,2.40
2017-09-05T11:34:39.070Z,2.20
2017-09-05T11:37:07.196Z,2.10
2017-09-05T11:39:35.342Z,2.33
2017-09-05T11:42:03.484Z,2.43
2017-09-05T11:44:31.849Z,3.17
2017-09-05T11:46:59.988Z,3.10
2017-09-05T11:49:28.216Z,2.40
2017-09-05T11:51:56.392Z,2.73
2017-09-05T11:54:24.688Z,3.00
2017-09-05T11:56:52.893Z,2.43
2017-09-05T11:59:21.301Z,2.27
2017-09-05T12:01:49.481Z,2.37
2017-09-05T12:04:17.649Z,2.70
2017-09-05T12:06:45.799Z,2.53
2017-09-05T12:09:13.971Z,2.50
2017-09-05T12:11:42.891Z,2.27
2017-09-05T12:14:11.038Z,2.60
2017-09-05T12:16:39.207Z,3.07
2017-09-05T12:19:07.396Z,1.77
2017-09-05T12:21:35.532Z,2.87
2017-09-05T12:24:03.668Z,2.90
2017-09-05T12:26:31.792Z,3.13
2017-09-05T12:28:59.988Z,2.33
2017-09-05T12:31:28.148Z,2.40
2017-09-05T12:33:56.288Z,2.70
2017-09-05T12:36:24.436Z,3.10
2017-09-05T12:38:52.580Z,2.63
2017-09-05T12:41:20.717Z,2.73
2017-09-05T12:43:48.968Z,2.33
2017-09-05T12:46:17.098Z,2.90
2017-09-05T12:48:45.334Z,2.37
2017-09-05T12:51:13.529Z,3.27
2017-09-05T12:53:41.672Z,2.83
2017-09-05T12:56:09.829Z,2.77
2017-09-05T12:58:38.016Z,2.43
2017-09-05T13:01:11.084Z,2.40
2017-09-05T13:03:39.565Z,3.40
2017-09-05T13:06:07.737Z,3.50
2017-09-05T13:08:35.905Z,3.00
2017-09-05T13:11:04.161Z,3.12
2017-09-05T13:13:32.383Z,3.50
2017-09-05T13:16:00.713Z,2.73
2017-09-05T13:18:30.437Z,2.70
2017-09-05T13:20:58.593Z,2.73
2017-09-05T13:23:26.745Z,2.53
2017-09-05T13:25:54.914Z,3.03
2017-09-05T13:28:25.266Z,2.87
2017-09-05T13:30:58.168Z,3.03
2017-09-05T13:33:26.976Z,2.37
2017-09-05T13:35:55.125Z,2.60
2017-09-05T13:38:23.738Z,3.13
2017-09-05T13:40:51.885Z,2.93
2017-09-05T13:43:20.455Z,2.83
2017-09-05T13:45:48.667Z,3.37
2017-09-05T13:48:16.794Z,2.83
2017-09-05T13:50:45.264Z,2.93
2017-09-05T13:53:13.424Z,3.83
2017-09-05T13:55:41.635Z,2.60
2017-09-05T13:58:09.786Z,3.97
2017-09-05T14:00:38.448Z,3.60
2017-09-05T14:03:06.604Z,2.97
2017-09-05T14:05:34.768Z,2.00
2017-09-05T14:08:02.907Z,2.97
2017-09-05T14:10:31.045Z,3.00
2017-09-05T14:12:59.190Z,3.35
2017-09-05T14:15:27.472Z,3.20
2017-09-05T14:17:55.692Z,3.80
2017-09-05T14:20:23.828Z,3.33
2017-09-05T14:22:52.015Z,3.07
2017-09-05T14:25:20.132Z,3.40
2017-09-05T14:27:48.323Z,3.40
2017-09-05T14:30:16.560Z,4.10
2017-09-05T14:32:44.697Z,2.67
2017-09-05T14:35:12.822Z,3.13
2017-09-05T14:37:40.967Z,2.80
2017-09-05T14:40:09.163Z,3.00
2017-09-05T14:42:37.924Z,3.97
2017-09-05T14:45:06.072Z,4.33
2017-09-05T14:47:34.209Z,3.47
2017-09-05T14:50:03.153Z,2.80
2017-09-05T14:52:31.298Z,2.90
2017-09-05T14:54:59.556Z,3.00
2017-09-05T14:57:27.672Z,2.90
2017-09-05T14:59:56.064Z,3.13
2017-09-05T15:02:24.237Z,2.97
2017-09-05T15:04:52.479Z,2.97
2017-09-05T15:07:20.637Z,3.13
2017-09-05T15:09:48.764Z,2.70
2017-09-05T15:12:16.938Z,3.73
2017-09-05T15:14:45.077Z,2.80
2017-09-05T15:17:13.308Z,2.70
2017-09-05T15:19:41.613Z,3.20
2017-09-05T15:22:09.830Z,3.03
2017-09-05T15:24:38.837Z,3.33
2017-09-05T15:27:06.979Z,3.50
2017-09-05T15:29:35.160Z,3.00
2017-09-05T15:32:03.300Z,2.47
2017-09-05T15:34:31.521Z,3.27
2017-09-05T15:36:59.725Z,3.13
2017-09-05T15:39:27.958Z,2.83
2017-09-05T15:41:56.116Z,2.83
2017-09-05T15:44:24.287Z,2.03
2017-09-05T15:46:52.412Z,2.70
2017-09-05T15:49:20.580Z,2.83
2017-09-05T15:51:48.735Z,2.80
2017-09-05T15:54:16.892Z,3.80
2017-09-05T15:56:45.096Z,3.40
2017-09-05T15:59:13.240Z,2.70
2017-09-05T16:01:41.409Z,2.43
2017-09-05T16:04:09.565Z,2.30
